Etusivu
METAR-TAF:

METAR-TAF

Lentoasemat :

Waukegan Regional Airport

Waukegan, Illinois, Yhdysvallat

Leveyspiiri: 42-25N, Pituuspiiri: 087-52W, korkeus merenpinnasta: 222 m

Tämänhetkinen sää

Tämä raportti tehtiin 7 minuuttia sitten, kello 09.55 UTC
Tuuli 3 kn lännestä/luoteesta
Lämpötila 6°C
Kosteus 75%
Ilmanpaine 1016 hPa
Näkyvyys: 16.1 km
Hajonneita pilviä 12000 ft:n korkeudessa

METAR: KUGN 170955Z AUTO 30003KT 10SM BKN120 06/02 A3000 RMK AO2 SLP161 T00560017 $

Aika: 05:02 (10:02 UTC)


TAF: puuttuu

Säähavainnot ja -ennusteet yli 4000 lentoasemalta (METAR- ja TAF-raportit).

Käytössä olevat sääasemat on merkitty karttaan keltaisilla ja punaisilla pisteillä.

Aseta hiiri pisteen päälle nähdäksesi sääaseman nimen.

Klikkaa sitten nähdäksesi säähavainnot ja -ennusteet.

Kartan vaihtaminen: klikkaa mustalla rastilla varustettuja vihreitä pisteitä, niin voit zoomata sisään; viivalla varustettua vihreää pistettä, niin voit zoomata ulos tai vihreitä nuolia, niin pääset viereisille kartoille.


METAR-TAF: